createdAt,value
2023-04-15T00:02:26.295Z,98515.67
2023-04-15T00:04:53.835Z,98516.81
2023-04-15T00:07:21.350Z,98517.14
2023-04-15T00:09:55.066Z,98512.27
2023-04-15T00:12:45.666Z,98514.70
2023-04-15T00:15:13.350Z,98514.10
2023-04-15T00:17:40.641Z,98516.90
2023-04-15T00:20:08.078Z,98514.95
2023-04-15T00:22:35.636Z,98510.98
2023-04-15T00:25:02.669Z,98510.90
2023-04-15T00:27:30.023Z,98509.18
2023-04-15T00:30:02.155Z,98503.11
2023-04-15T00:32:29.703Z,98498.10
2023-04-15T00:34:57.319Z,98497.18
2023-04-15T00:40:42.063Z,98484.36
2023-04-15T00:43:11.028Z,98479.42
2023-04-15T00:45:38.560Z,98477.27
2023-04-15T00:48:05.948Z,98480.47
2023-04-15T00:50:33.496Z,98473.64
2023-04-15T00:53:00.718Z,98477.77
2023-04-15T00:55:28.442Z,98474.80
2023-04-15T00:57:57.006Z,98478.88
2023-04-15T03:00:24.864Z,98208.00
2023-04-15T03:03:11.091Z,98198.70
2023-04-15T08:02:38.969Z,98207.05
2023-04-15T08:06:25.503Z,98217.83
2023-04-15T11:53:39.852Z,98597.71
2023-04-15T11:56:22.238Z,98598.85
2023-04-15T11:58:56.241Z,98600.23
2023-04-15T12:01:34.537Z,98596.58
2023-04-15T12:04:04.346Z,98598.54
2023-04-15T12:06:46.205Z,98603.02
2023-04-15T12:09:15.081Z,98609.55
2023-04-15T12:11:44.537Z,98608.77
2023-04-15T12:14:30.544Z,98612.56
2023-04-15T12:16:59.652Z,98616.05
2023-04-15T12:19:28.982Z,98615.38
2023-04-15T12:22:01.367Z,98614.11
2023-04-15T12:24:31.353Z,98607.28
2023-04-15T12:27:04.474Z,98605.17
2023-04-15T12:29:33.721Z,98601.87
2023-04-15T12:32:11.551Z,98596.36
2023-04-15T12:34:40.504Z,98591.70
2023-04-15T12:37:09.907Z,98597.21
2023-04-15T12:39:44.760Z,98595.98
2023-04-15T12:42:12.449Z,98583.36
2023-04-15T12:44:40.049Z,98576.09
2023-04-15T12:47:09.094Z,98560.55
2023-04-15T12:49:37.079Z,98552.54
2023-04-15T12:52:07.505Z,98554.55
2023-04-15T12:54:35.415Z,98554.25
2023-04-15T12:57:06.023Z,98554.52
2023-04-15T12:59:35.054Z,98551.44
2023-04-15T13:02:04.811Z,98546.88
2023-04-15T13:04:32.619Z,98548.95
2023-04-15T13:06:59.888Z,98550.58
2023-04-15T17:01:14.158Z,98607.98
2023-04-15T17:03:41.739Z,98605.59
2023-04-15T17:06:09.033Z,98604.19
2023-04-15T17:08:37.312Z,98603.09
2023-04-15T17:11:07.309Z,98608.34
2023-04-15T17:13:40.267Z,98599.70
2023-04-15T17:16:14.299Z,98598.52
2023-04-15T17:18:46.793Z,98593.02
2023-04-15T17:21:31.526Z,98596.66
2023-04-15T17:24:07.284Z,98597.19
2023-04-15T17:26:35.677Z,98598.13
2023-04-15T17:29:05.806Z,98605.67
2023-04-15T17:31:35.906Z,98607.64
2023-04-15T17:34:08.784Z,98611.52
2023-04-15T17:36:36.293Z,98615.68
2023-04-15T17:39:04.147Z,98613.27
2023-04-15T17:41:31.615Z,98612.98
2023-04-15T17:43:58.725Z,98614.70
2023-04-15T17:46:26.397Z,98617.11
2023-04-15T17:48:53.571Z,98627.84
2023-04-15T17:51:21.209Z,98636.11
2023-04-15T17:53:48.691Z,98639.84
2023-04-15T17:56:16.367Z,98647.28
2023-04-15T17:58:43.919Z,98653.73
2023-04-15T18:01:11.375Z,98653.36
2023-04-15T18:03:42.170Z,98667.36
2023-04-15T18:06:12.103Z,98680.29
2023-04-15T18:08:41.208Z,98690.04
2023-04-15T18:11:10.982Z,98700.30
2023-04-15T18:13:38.020Z,98714.64
2023-04-15T18:16:09.048Z,98728.04
2023-04-15T18:18:39.316Z,98730.73
2023-04-15T18:21:06.637Z,98736.17
2023-04-15T18:23:34.356Z,98741.77
2023-04-15T18:26:01.970Z,98751.58
2023-04-15T18:28:30.851Z,98756.98
2023-04-15T18:31:08.762Z,98758.48
2023-04-15T18:33:36.369Z,98761.13
2023-04-15T18:36:04.446Z,98766.83
2023-04-15T18:38:32.659Z,98775.11
2023-04-15T18:41:00.554Z,98787.10
2023-04-15T18:43:28.318Z,98792.39
2023-04-15T21:08:47.481Z,98821.03
2023-04-15T21:18:53.754Z,98836.66
2023-04-15T21:25:29.996Z,98848.42
2023-04-15T21:32:18.330Z,98873.21
2023-04-15T21:35:40.626Z,98877.57
2023-04-15T21:38:07.458Z,98875.71
2023-04-15T21:40:39.637Z,98876.09
2023-04-15T21:43:09.277Z,98879.38
2023-04-15T21:45:37.985Z,98877.30
2023-04-15T21:48:07.872Z,98888.05
2023-04-15T21:50:36.394Z,98888.46
2023-04-15T21:53:03.930Z,98888.48
2023-04-15T21:55:31.163Z,98892.90
2023-04-15T21:57:58.172Z,98897.05
2023-04-15T22:00:25.102Z,98898.40
2023-04-15T22:02:52.177Z,98901.68
2023-04-15T22:05:19.267Z,98902.55
2023-04-15T22:07:46.342Z,98900.98
2023-04-15T22:10:13.425Z,98900.87
2023-04-15T22:12:41.630Z,98905.92
2023-04-15T22:15:11.050Z,98907.44
2023-04-15T22:17:38.483Z,98907.25
2023-04-15T22:20:06.300Z,98905.63
2023-04-15T22:22:43.820Z,98912.41
2023-04-15T22:25:11.830Z,98914.80
2023-04-15T22:27:38.764Z,98910.64
2023-04-15T22:30:06.022Z,98905.42
2023-04-15T22:32:32.867Z,98905.00
2023-04-15T22:35:01.172Z,98907.42
2023-04-15T22:37:33.846Z,98905.91
2023-04-15T22:40:03.942Z,98912.62
2023-04-15T22:42:31.032Z,98908.45
2023-04-15T22:44:59.485Z,98910.21
2023-04-15T22:47:28.105Z,98906.61
2023-04-15T22:49:55.205Z,98902.54
2023-04-15T22:52:30.033Z,98903.91
2023-04-15T22:54:58.582Z,98903.69
2023-04-15T22:57:28.348Z,98905.23
2023-04-15T22:59:58.004Z,98902.33
2023-04-15T23:02:28.172Z,98908.13
2023-04-15T23:04:58.575Z,98906.85
2023-04-15T23:07:30.191Z,98907.34
2023-04-15T23:10:02.743Z,98910.20
2023-04-15T23:12:30.639Z,98908.96
2023-04-15T23:14:57.664Z,98909.92
2023-04-15T23:17:28.696Z,98906.54
2023-04-15T23:19:56.775Z,98905.84
2023-04-15T23:22:23.956Z,98906.66
2023-04-15T23:24:53.657Z,98904.48
2023-04-15T23:27:25.974Z,98900.70
2023-04-15T23:30:04.731Z,98902.82
2023-04-15T23:32:32.838Z,98900.33
2023-04-15T23:35:00.041Z,98896.23
2023-04-15T23:37:27.294Z,98891.77
2023-04-15T23:39:55.069Z,98890.19
2023-04-15T23:42:25.166Z,98891.06
2023-04-15T23:45:00.140Z,98884.43
2023-04-15T23:47:27.353Z,98882.24
2023-04-15T23:49:59.641Z,98878.34
2023-04-15T23:52:27.882Z,98880.34
2023-04-15T23:54:59.072Z,98880.05
2023-04-15T23:57:40.535Z,98881.70
